Hartford, Connecticut
Traffic Map
Current Weather Conditions
Hartford, Connecticut
Clear
Clear
27°
Feels Like: 27°
Wind Chill: 27° Ceiling: Unl
Heat Index: 27° Visibility: 10mi
Dew Point: 11° Wind: 3mph
Humidity: 38% Direction: ° ()
Pressure: 29.99in Gusts: 0mph
Raw Report DataKHFD 171853Z VRB03KT 10SM CLR 27/11 A2999 RMK AO2 SLP156 T02670111
Traffic Incident Summary
Active as of:
Severity:
Category:
InformationThere was an issue retrieving the traffic information for this location. Please try a different location or try again shortly.
Advertisements